sensor_id;sensor_type;location;lat;lon;timestamp;P1;durP1;ratioP1;P2;durP2;ratioP2
22476;SDS011;11405;51.698;-0.292;2022-10-23T00:01:09;15.10;;;4.35;;
22476;SDS011;11405;51.698;-0.292;2022-10-23T00:03:35;12.50;;;4.72;;
22476;SDS011;11405;51.698;-0.292;2022-10-23T00:06:03;22.05;;;4.82;;
22476;SDS011;11405;51.698;-0.292;2022-10-23T00:08:29;15.65;;;4.55;;
22476;SDS011;11405;51.698;-0.292;2022-10-23T00:10:55;16.35;;;4.53;;
22476;SDS011;11405;51.698;-0.292;2022-10-23T00:13:21;14.70;;;4.57;;
22476;SDS011;11405;51.698;-0.292;2022-10-23T00:15:47;17.05;;;4.38;;
22476;SDS011;11405;51.698;-0.292;2022-10-23T00:18:13;14.30;;;4.18;;
22476;SDS011;11405;51.698;-0.292;2022-10-23T00:20:39;12.38;;;3.90;;
22476;SDS011;11405;51.698;-0.292;2022-10-23T00:23:05;16.63;;;4.10;;
22476;SDS011;11405;51.698;-0.292;2022-10-23T00:25:31;9.50;;;4.00;;
22476;SDS011;11405;51.698;-0.292;2022-10-23T00:27:57;9.00;;;4.00;;
22476;SDS011;11405;51.698;-0.292;2022-10-23T00:30:23;12.70;;;3.88;;
22476;SDS011;11405;51.698;-0.292;2022-10-23T00:32:49;12.25;;;3.90;;
22476;SDS011;11405;51.698;-0.292;2022-10-23T00:35:15;14.20;;;4.30;;
22476;SDS011;11405;51.698;-0.292;2022-10-23T00:37:41;16.02;;;4.75;;
22476;SDS011;11405;51.698;-0.292;2022-10-23T00:40:07;12.80;;;4.25;;
22476;SDS011;11405;51.698;-0.292;2022-10-23T00:42:34;15.63;;;4.18;;
22476;SDS011;11405;51.698;-0.292;2022-10-23T00:47:38;8.73;;;3.67;;
22476;SDS011;11405;51.698;-0.292;2022-10-23T00:50:04;11.10;;;3.40;;
22476;SDS011;11405;51.698;-0.292;2022-10-23T00:52:30;14.57;;;4.00;;
22476;SDS011;11405;51.698;-0.292;2022-10-23T00:54:57;9.48;;;4.30;;
22476;SDS011;11405;51.698;-0.292;2022-10-23T00:57:23;10.73;;;4.22;;
22476;SDS011;11405;51.698;-0.292;2022-10-23T00:59:49;9.05;;;3.70;;
22476;SDS011;11405;51.698;-0.292;2022-10-23T01:02:15;11.45;;;3.92;;
22476;SDS011;11405;51.698;-0.292;2022-10-23T01:04:41;16.13;;;4.03;;
22476;SDS011;11405;51.698;-0.292;2022-10-23T01:09:53;14.18;;;3.70;;
22476;SDS011;11405;51.698;-0.292;2022-10-23T01:12:23;9.15;;;3.63;;
22476;SDS011;11405;51.698;-0.292;2022-10-23T01:15:09;11.25;;;3.58;;
22476;SDS011;11405;51.698;-0.292;2022-10-23T01:25:32;14.43;;;4.20;;
22476;SDS011;11405;51.698;-0.292;2022-10-23T01:28:07;14.82;;;4.20;;
22476;SDS011;11405;51.698;-0.292;2022-10-23T01:30:34;16.90;;;4.07;;
22476;SDS011;11405;51.698;-0.292;2022-10-23T01:33:06;17.00;;;4.13;;
22476;SDS011;11405;51.698;-0.292;2022-10-23T01:38:11;15.35;;;4.10;;
22476;SDS011;11405;51.698;-0.292;2022-10-23T01:43:12;13.48;;;3.67;;
22476;SDS011;11405;51.698;-0.292;2022-10-23T01:45:47;17.60;;;3.20;;
22476;SDS011;11405;51.698;-0.292;2022-10-23T01:48:16;12.13;;;3.53;;
22476;SDS011;11405;51.698;-0.292;2022-10-23T01:50:42;12.70;;;3.03;;
22476;SDS011;11405;51.698;-0.292;2022-10-23T01:53:08;11.82;;;3.63;;
22476;SDS011;11405;51.698;-0.292;2022-10-23T01:55:35;13.55;;;3.50;;
22476;SDS011;11405;51.698;-0.292;2022-10-23T01:58:02;11.75;;;3.10;;
22476;SDS011;11405;51.698;-0.292;2022-10-23T02:00:31;7.40;;;2.85;;
22476;SDS011;11405;51.698;-0.292;2022-10-23T02:02:57;11.02;;;3.42;;
22476;SDS011;11405;51.698;-0.292;2022-10-23T02:05:24;9.80;;;2.80;;
22476;SDS011;11405;51.698;-0.292;2022-10-23T02:07:51;12.05;;;2.90;;
22476;SDS011;11405;51.698;-0.292;2022-10-23T02:10:17;10.77;;;2.88;;
22476;SDS011;11405;51.698;-0.292;2022-10-23T02:13:07;9.32;;;2.53;;
22476;SDS011;11405;51.698;-0.292;2022-10-23T02:15:37;11.95;;;2.67;;
22476;SDS011;11405;51.698;-0.292;2022-10-23T02:20:42;12.75;;;2.83;;
22476;SDS011;11405;51.698;-0.292;2022-10-23T02:23:14;14.50;;;3.53;;
22476;SDS011;11405;51.698;-0.292;2022-10-23T02:25:44;15.43;;;4.00;;
22476;SDS011;11405;51.698;-0.292;2022-10-23T02:28:12;8.63;;;2.92;;
22476;SDS011;11405;51.698;-0.292;2022-10-23T02:30:40;13.88;;;3.17;;
22476;SDS011;11405;51.698;-0.292;2022-10-23T02:33:09;14.18;;;3.15;;
22476;SDS011;11405;51.698;-0.292;2022-10-23T02:38:02;8.60;;;3.17;;
22476;SDS011;11405;51.698;-0.292;2022-10-23T02:40:38;10.32;;;3.60;;
22476;SDS011;11405;51.698;-0.292;2022-10-23T02:45:39;15.68;;;3.13;;
22476;SDS011;11405;51.698;-0.292;2022-10-23T02:48:18;15.10;;;3.35;;
22476;SDS011;11405;51.698;-0.292;2022-10-23T02:51:04;10.35;;;3.15;;
22476;SDS011;11405;51.698;-0.292;2022-10-23T02:53:34;6.25;;;2.83;;
22476;SDS011;11405;51.698;-0.292;2022-10-23T03:01:04;12.85;;;2.97;;
22476;SDS011;11405;51.698;-0.292;2022-10-23T03:03:35;6.95;;;3.00;;
22476;SDS011;11405;51.698;-0.292;2022-10-23T03:06:02;15.15;;;4.25;;
22476;SDS011;11405;51.698;-0.292;2022-10-23T03:08:28;8.43;;;3.33;;
22476;SDS011;11405;51.698;-0.292;2022-10-23T03:10:54;14.38;;;2.85;;
22476;SDS011;11405;51.698;-0.292;2022-10-23T03:13:21;9.80;;;2.88;;
22476;SDS011;11405;51.698;-0.292;2022-10-23T03:15:47;11.60;;;3.63;;
22476;SDS011;11405;51.698;-0.292;2022-10-23T03:18:13;9.32;;;2.47;;
22476;SDS011;11405;51.698;-0.292;2022-10-23T03:20:39;17.23;;;3.15;;
22476;SDS011;11405;51.698;-0.292;2022-10-23T03:23:05;12.02;;;3.20;;
22476;SDS011;11405;51.698;-0.292;2022-10-23T03:25:31;11.85;;;3.00;;
22476;SDS011;11405;51.698;-0.292;2022-10-23T03:27:57;16.90;;;3.60;;
22476;SDS011;11405;51.698;-0.292;2022-10-23T03:30:24;13.35;;;2.80;;
22476;SDS011;11405;51.698;-0.292;2022-10-23T03:32:50;6.47;;;2.60;;
22476;SDS011;11405;51.698;-0.292;2022-10-23T03:35:16;13.73;;;3.17;;
22476;SDS011;11405;51.698;-0.292;2022-10-23T03:37:42;16.30;;;3.38;;
22476;SDS011;11405;51.698;-0.292;2022-10-23T03:40:08;11.20;;;2.90;;
22476;SDS011;11405;51.698;-0.292;2022-10-23T03:42:34;12.48;;;3.22;;
22476;SDS011;11405;51.698;-0.292;2022-10-23T03:45:00;8.38;;;3.05;;
22476;SDS011;11405;51.698;-0.292;2022-10-23T03:47:26;12.35;;;3.15;;
22476;SDS011;11405;51.698;-0.292;2022-10-23T03:49:54;10.80;;;3.65;;
22476;SDS011;11405;51.698;-0.292;2022-10-23T03:52:20;8.70;;;2.35;;
22476;SDS011;11405;51.698;-0.292;2022-10-23T03:54:46;14.90;;;3.63;;
22476;SDS011;11405;51.698;-0.292;2022-10-23T03:57:12;9.02;;;3.38;;
22476;SDS011;11405;51.698;-0.292;2022-10-23T03:59:38;16.33;;;3.55;;
22476;SDS011;11405;51.698;-0.292;2022-10-23T04:02:04;14.85;;;2.78;;
22476;SDS011;11405;51.698;-0.292;2022-10-23T04:04:30;11.15;;;3.30;;
22476;SDS011;11405;51.698;-0.292;2022-10-23T04:06:56;13.02;;;3.33;;
22476;SDS011;11405;51.698;-0.292;2022-10-23T04:09:22;13.18;;;3.75;;
22476;SDS011;11405;51.698;-0.292;2022-10-23T04:11:48;12.52;;;3.45;;
22476;SDS011;11405;51.698;-0.292;2022-10-23T04:14:14;12.88;;;3.47;;
22476;SDS011;11405;51.698;-0.292;2022-10-23T04:16:40;16.15;;;2.65;;
22476;SDS011;11405;51.698;-0.292;2022-10-23T04:19:06;18.63;;;4.05;;
22476;SDS011;11405;51.698;-0.292;2022-10-23T04:21:32;10.77;;;3.30;;
22476;SDS011;11405;51.698;-0.292;2022-10-23T04:23:58;14.52;;;3.47;;
22476;SDS011;11405;51.698;-0.292;2022-10-23T04:26:24;9.45;;;3.17;;
22476;SDS011;11405;51.698;-0.292;2022-10-23T04:28:50;15.60;;;3.45;;
22476;SDS011;11405;51.698;-0.292;2022-10-23T04:31:17;10.93;;;4.18;;
22476;SDS011;11405;51.698;-0.292;2022-10-23T04:33:43;11.43;;;3.10;;
22476;SDS011;11405;51.698;-0.292;2022-10-23T04:36:09;10.45;;;3.78;;
22476;SDS011;11405;51.698;-0.292;2022-10-23T04:38:35;16.45;;;3.38;;
22476;SDS011;11405;51.698;-0.292;2022-10-23T04:41:01;20.65;;;3.53;;
22476;SDS011;11405;51.698;-0.292;2022-10-23T04:43:27;15.20;;;3.50;;
22476;SDS011;11405;51.698;-0.292;2022-10-23T04:45:53;10.93;;;2.97;;
22476;SDS011;11405;51.698;-0.292;2022-10-23T04:48:19;15.63;;;3.53;;
22476;SDS011;11405;51.698;-0.292;2022-10-23T04:50:53;11.00;;;3.13;;
22476;SDS011;11405;51.698;-0.292;2022-10-23T04:53:20;14.07;;;3.03;;
22476;SDS011;11405;51.698;-0.292;2022-10-23T04:55:50;10.75;;;3.10;;
22476;SDS011;11405;51.698;-0.292;2022-10-23T04:58:16;9.43;;;2.80;;
22476;SDS011;11405;51.698;-0.292;2022-10-23T05:00:42;18.25;;;3.05;;
22476;SDS011;11405;51.698;-0.292;2022-10-23T05:03:08;11.13;;;2.97;;
22476;SDS011;11405;51.698;-0.292;2022-10-23T05:05:34;18.25;;;2.95;;
22476;SDS011;11405;51.698;-0.292;2022-10-23T05:08:00;7.43;;;2.58;;
22476;SDS011;11405;51.698;-0.292;2022-10-23T05:10:26;8.75;;;2.78;;
22476;SDS011;11405;51.698;-0.292;2022-10-23T05:12:52;12.52;;;2.72;;
22476;SDS011;11405;51.698;-0.292;2022-10-23T05:15:18;12.57;;;2.70;;
22476;SDS011;11405;51.698;-0.292;2022-10-23T05:17:44;8.27;;;2.58;;
22476;SDS011;11405;51.698;-0.292;2022-10-23T05:20:13;6.22;;;2.30;;
22476;SDS011;11405;51.698;-0.292;2022-10-23T05:22:40;7.82;;;2.30;;
22476;SDS011;11405;51.698;-0.292;2022-10-23T05:25:07;7.65;;;2.28;;
22476;SDS011;11405;51.698;-0.292;2022-10-23T05:30:00;7.78;;;2.45;;
22476;SDS011;11405;51.698;-0.292;2022-10-23T05:32:26;12.15;;;3.05;;
22476;SDS011;11405;51.698;-0.292;2022-10-23T05:34:54;8.45;;;2.42;;
22476;SDS011;11405;51.698;-0.292;2022-10-23T05:37:20;10.50;;;2.15;;
22476;SDS011;11405;51.698;-0.292;2022-10-23T05:39:46;7.53;;;2.03;;
22476;SDS011;11405;51.698;-0.292;2022-10-23T05:42:12;16.42;;;2.65;;
22476;SDS011;11405;51.698;-0.292;2022-10-23T05:44:38;7.93;;;2.22;;
22476;SDS011;11405;51.698;-0.292;2022-10-23T05:47:05;8.63;;;2.08;;
22476;SDS011;11405;51.698;-0.292;2022-10-23T05:49:31;8.30;;;2.50;;
22476;SDS011;11405;51.698;-0.292;2022-10-23T05:51:57;8.07;;;2.90;;
22476;SDS011;11405;51.698;-0.292;2022-10-23T05:54:23;14.80;;;2.65;;
22476;SDS011;11405;51.698;-0.292;2022-10-23T05:56:50;10.10;;;2.60;;
22476;SDS011;11405;51.698;-0.292;2022-10-23T05:59:16;8.80;;;2.45;;
22476;SDS011;11405;51.698;-0.292;2022-10-23T06:01:42;11.88;;;2.72;;
22476;SDS011;11405;51.698;-0.292;2022-10-23T06:04:08;8.85;;;2.92;;
22476;SDS011;11405;51.698;-0.292;2022-10-23T06:06:34;10.30;;;2.75;;
22476;SDS011;11405;51.698;-0.292;2022-10-23T06:09:01;15.50;;;3.30;;
22476;SDS011;11405;51.698;-0.292;2022-10-23T06:11:27;7.45;;;2.53;;
22476;SDS011;11405;51.698;-0.292;2022-10-23T06:13:53;13.02;;;3.78;;
22476;SDS011;11405;51.698;-0.292;2022-10-23T06:16:20;11.65;;;2.72;;
22476;SDS011;11405;51.698;-0.292;2022-10-23T06:18:46;10.15;;;2.72;;
22476;SDS011;11405;51.698;-0.292;2022-10-23T06:21:13;13.27;;;3.40;;
22476;SDS011;11405;51.698;-0.292;2022-10-23T06:26:06;6.25;;;2.88;;
22476;SDS011;11405;51.698;-0.292;2022-10-23T06:28:32;8.05;;;2.63;;
22476;SDS011;11405;51.698;-0.292;2022-10-23T06:30:58;9.80;;;3.35;;
22476;SDS011;11405;51.698;-0.292;2022-10-23T06:33:24;6.38;;;2.90;;
22476;SDS011;11405;51.698;-0.292;2022-10-23T06:35:50;9.73;;;3.00;;
22476;SDS011;11405;51.698;-0.292;2022-10-23T06:38:16;10.05;;;3.00;;
22476;SDS011;11405;51.698;-0.292;2022-10-23T06:40:42;8.43;;;3.03;;
22476;SDS011;11405;51.698;-0.292;2022-10-23T06:43:10;8.00;;;2.70;;
22476;SDS011;11405;51.698;-0.292;2022-10-23T06:45:36;7.20;;;2.97;;
22476;SDS011;11405;51.698;-0.292;2022-10-23T06:48:02;7.75;;;3.05;;
22476;SDS011;11405;51.698;-0.292;2022-10-23T06:50:29;8.77;;;3.28;;
22476;SDS011;11405;51.698;-0.292;2022-10-23T06:52:55;6.13;;;2.63;;
22476;SDS011;11405;51.698;-0.292;2022-10-23T06:55:21;9.25;;;2.40;;
22476;SDS011;11405;51.698;-0.292;2022-10-23T06:57:47;10.88;;;3.70;;
22476;SDS011;11405;51.698;-0.292;2022-10-23T07:00:13;11.68;;;2.78;;
22476;SDS011;11405;51.698;-0.292;2022-10-23T07:02:39;9.35;;;2.40;;
22476;SDS011;11405;51.698;-0.292;2022-10-23T07:05:05;10.25;;;3.72;;
22476;SDS011;11405;51.698;-0.292;2022-10-23T07:07:31;10.93;;;2.92;;
22476;SDS011;11405;51.698;-0.292;2022-10-23T07:09:57;16.27;;;2.65;;
22476;SDS011;11405;51.698;-0.292;2022-10-23T07:12:23;8.88;;;3.00;;
22476;SDS011;11405;51.698;-0.292;2022-10-23T07:14:49;12.50;;;2.78;;
22476;SDS011;11405;51.698;-0.292;2022-10-23T07:17:15;8.13;;;2.15;;
22476;SDS011;11405;51.698;-0.292;2022-10-23T07:19:41;14.38;;;2.90;;
22476;SDS011;11405;51.698;-0.292;2022-10-23T07:22:07;12.63;;;2.20;;
22476;SDS011;11405;51.698;-0.292;2022-10-23T07:24:33;9.55;;;2.65;;
22476;SDS011;11405;51.698;-0.292;2022-10-23T07:27:02;9.60;;;2.60;;
22476;SDS011;11405;51.698;-0.292;2022-10-23T07:29:28;16.58;;;2.70;;
22476;SDS011;11405;51.698;-0.292;2022-10-23T07:31:54;8.70;;;2.20;;
22476;SDS011;11405;51.698;-0.292;2022-10-23T07:34:22;5.45;;;2.38;;
22476;SDS011;11405;51.698;-0.292;2022-10-23T07:36:48;5.65;;;2.10;;
22476;SDS011;11405;51.698;-0.292;2022-10-23T07:39:14;9.57;;;2.30;;
22476;SDS011;11405;51.698;-0.292;2022-10-23T07:41:40;8.20;;;2.10;;
22476;SDS011;11405;51.698;-0.292;2022-10-23T07:44:06;0.00;;;0.00;;
22476;SDS011;11405;51.698;-0.292;2022-10-23T07:46:31;0.00;;;0.00;;
22476;SDS011;11405;51.698;-0.292;2022-10-23T07:48:57;0.00;;;0.00;;
22476;SDS011;11405;51.698;-0.292;2022-10-23T07:51:23;0.00;;;0.00;;
22476;SDS011;11405;51.698;-0.292;2022-10-23T07:53:50;0.00;;;0.00;;
22476;SDS011;11405;51.698;-0.292;2022-10-23T07:56:17;0.00;;;0.00;;
22476;SDS011;11405;51.698;-0.292;2022-10-23T07:58:45;0.00;;;0.00;;
22476;SDS011;11405;51.698;-0.292;2022-10-23T08:01:16;0.00;;;0.00;;
22476;SDS011;11405;51.698;-0.292;2022-10-23T08:03:42;0.00;;;0.00;;
22476;SDS011;11405;51.698;-0.292;2022-10-23T08:06:08;0.00;;;0.00;;
22476;SDS011;11405;51.698;-0.292;2022-10-23T08:08:34;0.00;;;0.00;;
22476;SDS011;11405;51.698;-0.292;2022-10-23T08:11:00;0.00;;;0.00;;
22476;SDS011;11405;51.698;-0.292;2022-10-23T08:13:26;0.10;;;0.10;;
22476;SDS011;11405;51.698;-0.292;2022-10-23T08:15:52;0.00;;;0.00;;
22476;SDS011;11405;51.698;-0.292;2022-10-23T08:18:19;0.00;;;0.00;;
22476;SDS011;11405;51.698;-0.292;2022-10-23T08:20:46;0.00;;;0.00;;
22476;SDS011;11405;51.698;-0.292;2022-10-23T08:23:15;0.00;;;0.00;;
22476;SDS011;11405;51.698;-0.292;2022-10-23T08:25:42;0.00;;;0.00;;
22476;SDS011;11405;51.698;-0.292;2022-10-23T08:28:08;0.00;;;0.00;;
22476;SDS011;11405;51.698;-0.292;2022-10-23T08:30:35;0.00;;;0.00;;
22476;SDS011;11405;51.698;-0.292;2022-10-23T08:33:05;0.00;;;0.00;;
22476;SDS011;11405;51.698;-0.292;2022-10-23T08:35:35;0.00;;;0.00;;
22476;SDS011;11405;51.698;-0.292;2022-10-23T08:38:01;0.00;;;0.00;;
22476;SDS011;11405;51.698;-0.292;2022-10-23T08:40:27;0.00;;;0.00;;
22476;SDS011;11405;51.698;-0.292;2022-10-23T08:45:30;0.00;;;0.00;;
22476;SDS011;11405;51.698;-0.292;2022-10-23T08:47:59;0.00;;;0.00;;
22476;SDS011;11405;51.698;-0.292;2022-10-23T08:50:33;0.00;;;0.00;;
22476;SDS011;11405;51.698;-0.292;2022-10-23T08:53:02;0.00;;;0.00;;
22476;SDS011;11405;51.698;-0.292;2022-10-23T08:55:29;0.00;;;0.00;;
22476;SDS011;11405;51.698;-0.292;2022-10-23T09:00:27;0.00;;;0.00;;
22476;SDS011;11405;51.698;-0.292;2022-10-23T09:02:54;0.00;;;0.00;;
22476;SDS011;11405;51.698;-0.292;2022-10-23T09:05:26;0.00;;;0.00;;
22476;SDS011;11405;51.698;-0.292;2022-10-23T09:08:13;0.00;;;0.00;;
22476;SDS011;11405;51.698;-0.292;2022-10-23T09:16:15;0.00;;;0.00;;
22476;SDS011;11405;51.698;-0.292;2022-10-23T09:18:44;0.00;;;0.00;;
22476;SDS011;11405;51.698;-0.292;2022-10-23T09:21:11;0.00;;;0.00;;
22476;SDS011;11405;51.698;-0.292;2022-10-23T09:23:37;0.00;;;0.00;;
22476;SDS011;11405;51.698;-0.292;2022-10-23T09:26:06;0.00;;;0.00;;
22476;SDS011;11405;51.698;-0.292;2022-10-23T09:28:39;0.00;;;0.00;;
22476;SDS011;11405;51.698;-0.292;2022-10-23T09:31:08;0.00;;;0.00;;
22476;SDS011;11405;51.698;-0.292;2022-10-23T09:33:34;0.00;;;0.00;;
22476;SDS011;11405;51.698;-0.292;2022-10-23T09:36:07;0.00;;;0.00;;
22476;SDS011;11405;51.698;-0.292;2022-10-23T09:38:49;0.00;;;0.00;;
22476;SDS011;11405;51.698;-0.292;2022-10-23T09:41:20;0.00;;;0.00;;
22476;SDS011;11405;51.698;-0.292;2022-10-23T09:43:58;0.00;;;0.00;;
22476;SDS011;11405;51.698;-0.292;2022-10-23T09:46:24;0.00;;;0.00;;
22476;SDS011;11405;51.698;-0.292;2022-10-23T09:48:56;0.00;;;0.00;;
22476;SDS011;11405;51.698;-0.292;2022-10-23T09:51:23;0.00;;;0.00;;
22476;SDS011;11405;51.698;-0.292;2022-10-23T09:59:00;0.00;;;0.00;;
22476;SDS011;11405;51.698;-0.292;2022-10-23T10:01:28;0.00;;;0.00;;
22476;SDS011;11405;51.698;-0.292;2022-10-23T10:03:54;0.00;;;0.00;;
22476;SDS011;11405;51.698;-0.292;2022-10-23T10:06:28;0.00;;;0.00;;
22476;SDS011;11405;51.698;-0.292;2022-10-23T10:08:58;0.00;;;0.00;;
22476;SDS011;11405;51.698;-0.292;2022-10-23T10:13:54;0.00;;;0.00;;
22476;SDS011;11405;51.698;-0.292;2022-10-23T10:19:05;0.00;;;0.00;;
22476;SDS011;11405;51.698;-0.292;2022-10-23T10:21:47;0.20;;;0.15;;
22476;SDS011;11405;51.698;-0.292;2022-10-23T10:24:20;0.00;;;0.00;;
22476;SDS011;11405;51.698;-0.292;2022-10-23T10:27:09;0.00;;;0.00;;
22476;SDS011;11405;51.698;-0.292;2022-10-23T10:32:35;0.00;;;0.00;;
22476;SDS011;11405;51.698;-0.292;2022-10-23T10:35:04;0.00;;;0.00;;
22476;SDS011;11405;51.698;-0.292;2022-10-23T10:37:35;0.17;;;0.17;;
22476;SDS011;11405;51.698;-0.292;2022-10-23T10:42:40;0.00;;;0.00;;
22476;SDS011;11405;51.698;-0.292;2022-10-23T10:45:18;0.00;;;0.00;;
22476;SDS011;11405;51.698;-0.292;2022-10-23T10:48:02;0.00;;;0.00;;
22476;SDS011;11405;51.698;-0.292;2022-10-23T10:50:49;0.45;;;0.25;;
22476;SDS011;11405;51.698;-0.292;2022-10-23T10:53:27;0.00;;;0.00;;
22476;SDS011;11405;51.698;-0.292;2022-10-23T10:55:56;0.00;;;0.00;;
22476;SDS011;11405;51.698;-0.292;2022-10-23T11:03:54;0.00;;;0.00;;
22476;SDS011;11405;51.698;-0.292;2022-10-23T11:06:22;0.00;;;0.00;;
22476;SDS011;11405;51.698;-0.292;2022-10-23T11:08:49;0.00;;;0.00;;
22476;SDS011;11405;51.698;-0.292;2022-10-23T11:11:32;0.00;;;0.00;;
22476;SDS011;11405;51.698;-0.292;2022-10-23T11:13:59;0.00;;;0.00;;
22476;SDS011;11405;51.698;-0.292;2022-10-23T11:27:45;0.00;;;0.00;;
22476;SDS011;11405;51.698;-0.292;2022-10-23T11:36:10;0.00;;;0.00;;
22476;SDS011;11405;51.698;-0.292;2022-10-23T11:40:50;0.00;;;0.00;;
22476;SDS011;11405;51.698;-0.292;2022-10-23T11:43:27;0.00;;;0.00;;
22476;SDS011;11405;51.698;-0.292;2022-10-23T11:45:53;0.00;;;0.00;;
22476;SDS011;11405;51.698;-0.292;2022-10-23T11:48:20;0.00;;;0.00;;
22476;SDS011;11405;51.698;-0.292;2022-10-23T12:01:19;0.05;;;0.05;;
22476;SDS011;11405;51.698;-0.292;2022-10-23T12:03:51;0.00;;;0.00;;
22476;SDS011;11405;51.698;-0.292;2022-10-23T12:06:24;0.00;;;0.00;;
22476;SDS011;11405;51.698;-0.292;2022-10-23T12:08:52;0.00;;;0.00;;
22476;SDS011;11405;51.698;-0.292;2022-10-23T12:11:26;0.00;;;0.00;;
22476;SDS011;11405;51.698;-0.292;2022-10-23T12:13:52;0.00;;;0.00;;
22476;SDS011;11405;51.698;-0.292;2022-10-23T12:16:18;0.00;;;0.00;;
22476;SDS011;11405;51.698;-0.292;2022-10-23T12:18:49;0.00;;;0.00;;
22476;SDS011;11405;51.698;-0.292;2022-10-23T12:21:17;0.00;;;0.00;;
22476;SDS011;11405;51.698;-0.292;2022-10-23T12:26:22;0.00;;;0.00;;
22476;SDS011;11405;51.698;-0.292;2022-10-23T12:31:38;0.00;;;0.00;;
22476;SDS011;11405;51.698;-0.292;2022-10-23T12:34:15;0.00;;;0.00;;
22476;SDS011;11405;51.698;-0.292;2022-10-23T12:39:32;0.00;;;0.00;;
22476;SDS011;11405;51.698;-0.292;2022-10-23T12:42:00;0.00;;;0.00;;
22476;SDS011;11405;51.698;-0.292;2022-10-23T12:44:26;0.00;;;0.00;;
22476;SDS011;11405;51.698;-0.292;2022-10-23T12:46:56;0.00;;;0.00;;
22476;SDS011;11405;51.698;-0.292;2022-10-23T12:49:23;0.00;;;0.00;;
22476;SDS011;11405;51.698;-0.292;2022-10-23T12:51:54;0.00;;;0.00;;
22476;SDS011;11405;51.698;-0.292;2022-10-23T12:54:20;0.00;;;0.00;;
22476;SDS011;11405;51.698;-0.292;2022-10-23T12:56:47;0.00;;;0.00;;
22476;SDS011;11405;51.698;-0.292;2022-10-23T12:59:14;0.00;;;0.00;;
22476;SDS011;11405;51.698;-0.292;2022-10-23T13:01:40;0.00;;;0.00;;
22476;SDS011;11405;51.698;-0.292;2022-10-23T13:06:36;0.00;;;0.00;;
22476;SDS011;11405;51.698;-0.292;2022-10-23T13:09:03;0.00;;;0.00;;
22476;SDS011;11405;51.698;-0.292;2022-10-23T13:11:30;0.00;;;0.00;;
22476;SDS011;11405;51.698;-0.292;2022-10-23T13:13:56;0.00;;;0.00;;
22476;SDS011;11405;51.698;-0.292;2022-10-23T13:16:23;0.00;;;0.00;;
22476;SDS011;11405;51.698;-0.292;2022-10-23T13:18:49;0.00;;;0.00;;
22476;SDS011;11405;51.698;-0.292;2022-10-23T13:21:21;0.00;;;0.00;;
22476;SDS011;11405;51.698;-0.292;2022-10-23T13:24:03;0.00;;;0.00;;
22476;SDS011;11405;51.698;-0.292;2022-10-23T13:26:31;0.00;;;0.00;;
22476;SDS011;11405;51.698;-0.292;2022-10-23T13:28:57;0.00;;;0.00;;
22476;SDS011;11405;51.698;-0.292;2022-10-23T13:31:29;0.00;;;0.00;;
22476;SDS011;11405;51.698;-0.292;2022-10-23T13:36:24;0.00;;;0.00;;
22476;SDS011;11405;51.698;-0.292;2022-10-23T13:41:39;0.00;;;0.00;;
22476;SDS011;11405;51.698;-0.292;2022-10-23T13:44:05;0.00;;;0.00;;
22476;SDS011;11405;51.698;-0.292;2022-10-23T13:46:32;0.00;;;0.00;;
22476;SDS011;11405;51.698;-0.292;2022-10-23T13:48:58;0.00;;;0.00;;
22476;SDS011;11405;51.698;-0.292;2022-10-23T13:51:25;0.00;;;0.00;;
22476;SDS011;11405;51.698;-0.292;2022-10-23T13:53:52;0.00;;;0.00;;
22476;SDS011;11405;51.698;-0.292;2022-10-23T13:56:19;0.00;;;0.00;;
22476;SDS011;11405;51.698;-0.292;2022-10-23T13:58:45;0.00;;;0.00;;
22476;SDS011;11405;51.698;-0.292;2022-10-23T14:01:21;0.00;;;0.00;;
22476;SDS011;11405;51.698;-0.292;2022-10-23T14:03:48;0.00;;;0.00;;
22476;SDS011;11405;51.698;-0.292;2022-10-23T14:06:14;0.00;;;0.00;;
22476;SDS011;11405;51.698;-0.292;2022-10-23T14:08:40;0.00;;;0.00;;
22476;SDS011;11405;51.698;-0.292;2022-10-23T14:11:07;0.00;;;0.00;;
22476;SDS011;11405;51.698;-0.292;2022-10-23T14:13:33;0.00;;;0.00;;
22476;SDS011;11405;51.698;-0.292;2022-10-23T14:15:59;0.00;;;0.00;;
22476;SDS011;11405;51.698;-0.292;2022-10-23T14:18:25;0.00;;;0.00;;
22476;SDS011;11405;51.698;-0.292;2022-10-23T14:20:51;0.00;;;0.00;;
22476;SDS011;11405;51.698;-0.292;2022-10-23T14:23:18;0.10;;;0.10;;
22476;SDS011;11405;51.698;-0.292;2022-10-23T14:25:43;0.00;;;0.00;;
22476;SDS011;11405;51.698;-0.292;2022-10-23T14:28:10;0.00;;;0.00;;
22476;SDS011;11405;51.698;-0.292;2022-10-23T14:30:36;0.00;;;0.00;;
22476;SDS011;11405;51.698;-0.292;2022-10-23T14:33:02;0.00;;;0.00;;
22476;SDS011;11405;51.698;-0.292;2022-10-23T14:35:30;0.00;;;0.00;;
22476;SDS011;11405;51.698;-0.292;2022-10-23T14:37:56;0.00;;;0.00;;
22476;SDS011;11405;51.698;-0.292;2022-10-23T14:40:23;0.00;;;0.00;;
22476;SDS011;11405;51.698;-0.292;2022-10-23T14:42:49;0.00;;;0.00;;
22476;SDS011;11405;51.698;-0.292;2022-10-23T14:45:15;0.00;;;0.00;;
22476;SDS011;11405;51.698;-0.292;2022-10-23T14:47:41;0.00;;;0.00;;
22476;SDS011;11405;51.698;-0.292;2022-10-23T14:50:09;0.00;;;0.00;;
22476;SDS011;11405;51.698;-0.292;2022-10-23T14:52:35;0.00;;;0.00;;
22476;SDS011;11405;51.698;-0.292;2022-10-23T14:55:01;0.00;;;0.00;;
22476;SDS011;11405;51.698;-0.292;2022-10-23T14:57:27;0.00;;;0.00;;
22476;SDS011;11405;51.698;-0.292;2022-10-23T14:59:53;0.00;;;0.00;;
22476;SDS011;11405;51.698;-0.292;2022-10-23T15:02:19;0.00;;;0.00;;
22476;SDS011;11405;51.698;-0.292;2022-10-23T15:04:45;0.00;;;0.00;;
22476;SDS011;11405;51.698;-0.292;2022-10-23T15:07:11;0.00;;;0.00;;
22476;SDS011;11405;51.698;-0.292;2022-10-23T15:09:37;0.00;;;0.00;;
22476;SDS011;11405;51.698;-0.292;2022-10-23T15:12:04;0.00;;;0.00;;
22476;SDS011;11405;51.698;-0.292;2022-10-23T15:16:56;0.00;;;0.00;;
22476;SDS011;11405;51.698;-0.292;2022-10-23T15:19:22;0.00;;;0.00;;
22476;SDS011;11405;51.698;-0.292;2022-10-23T15:21:48;0.00;;;0.00;;
22476;SDS011;11405;51.698;-0.292;2022-10-23T15:26:41;0.00;;;0.00;;
22476;SDS011;11405;51.698;-0.292;2022-10-23T15:29:08;0.00;;;0.00;;
22476;SDS011;11405;51.698;-0.292;2022-10-23T15:34:17;0.00;;;0.00;;
22476;SDS011;11405;51.698;-0.292;2022-10-23T15:36:44;0.00;;;0.00;;
22476;SDS011;11405;51.698;-0.292;2022-10-23T15:39:11;0.00;;;0.00;;
22476;SDS011;11405;51.698;-0.292;2022-10-23T15:44:03;0.00;;;0.00;;
22476;SDS011;11405;51.698;-0.292;2022-10-23T15:48:56;0.00;;;0.00;;
22476;SDS011;11405;51.698;-0.292;2022-10-23T15:51:22;0.00;;;0.00;;
22476;SDS011;11405;51.698;-0.292;2022-10-23T15:53:48;0.00;;;0.00;;
22476;SDS011;11405;51.698;-0.292;2022-10-23T15:56:14;0.00;;;0.00;;
22476;SDS011;11405;51.698;-0.292;2022-10-23T15:58:40;8.25;;;3.22;;
22476;SDS011;11405;51.698;-0.292;2022-10-23T16:01:06;5.85;;;3.67;;
22476;SDS011;11405;51.698;-0.292;2022-10-23T16:03:32;9.90;;;4.50;;
22476;SDS011;11405;51.698;-0.292;2022-10-23T16:06:01;8.40;;;4.57;;
22476;SDS011;11405;51.698;-0.292;2022-10-23T16:08:27;11.82;;;4.72;;
22476;SDS011;11405;51.698;-0.292;2022-10-23T16:10:53;15.20;;;4.65;;
22476;SDS011;11405;51.698;-0.292;2022-10-23T16:13:19;7.65;;;4.50;;
22476;SDS011;11405;51.698;-0.292;2022-10-23T16:15:45;8.45;;;4.20;;
22476;SDS011;11405;51.698;-0.292;2022-10-23T16:18:11;11.65;;;5.18;;
22476;SDS011;11405;51.698;-0.292;2022-10-23T16:20:40;9.40;;;4.90;;
22476;SDS011;11405;51.698;-0.292;2022-10-23T16:23:06;10.00;;;5.13;;
22476;SDS011;11405;51.698;-0.292;2022-10-23T16:25:34;12.45;;;4.95;;
22476;SDS011;11405;51.698;-0.292;2022-10-23T16:28:00;8.05;;;4.20;;
22476;SDS011;11405;51.698;-0.292;2022-10-23T16:30:26;9.88;;;4.88;;
22476;SDS011;11405;51.698;-0.292;2022-10-23T16:32:52;7.95;;;1.52;;
22476;SDS011;11405;51.698;-0.292;2022-10-23T16:37:44;3.83;;;0.70;;
22476;SDS011;11405;51.698;-0.292;2022-10-23T16:40:10;7.72;;;1.20;;
22476;SDS011;11405;51.698;-0.292;2022-10-23T16:42:36;0.88;;;0.40;;